sensor_id;sensor_type;location;lat;lon;timestamp;pressure;altitude;pressure_sealevel;temperature;humidity
21821;BME280;11073;48.586;12.066;2023-04-28T00:01:50;96454.06;;;11.88;50.53
21821;BME280;11073;48.586;12.066;2023-04-28T00:04:19;96449.13;;;11.85;50.09
21821;BME280;11073;48.586;12.066;2023-04-28T00:06:48;96444.19;;;11.82;50.26
21821;BME280;11073;48.586;12.066;2023-04-28T00:09:17;96434.28;;;11.76;49.93
21821;BME280;11073;48.586;12.066;2023-04-28T00:11:47;96439.72;;;11.76;50.29
21821;BME280;11073;48.586;12.066;2023-04-28T00:14:16;96438.56;;;11.72;50.88
21821;BME280;11073;48.586;12.066;2023-04-28T00:16:45;96442.59;;;11.69;50.98
21821;BME280;11073;48.586;12.066;2023-04-28T00:19:13;96445.47;;;11.63;50.88
21821;BME280;11073;48.586;12.066;2023-04-28T00:21:42;96442.63;;;11.41;50.90
21821;BME280;11073;48.586;12.066;2023-04-28T00:24:11;96436.53;;;11.33;51.37
21821;BME280;11073;48.586;12.066;2023-04-28T00:26:41;96432.75;;;11.35;51.48
21821;BME280;11073;48.586;12.066;2023-04-28T00:29:11;96400.78;;;11.20;51.87
21821;BME280;11073;48.586;12.066;2023-04-28T00:31:40;96430.16;;;11.40;51.42
21821;BME280;11073;48.586;12.066;2023-04-28T00:34:09;96420.22;;;11.45;51.54
21821;BME280;11073;48.586;12.066;2023-04-28T00:36:41;96405.66;;;11.35;51.40
21821;BME280;11073;48.586;12.066;2023-04-28T00:39:10;96421.88;;;11.46;51.70
21821;BME280;11073;48.586;12.066;2023-04-28T00:41:39;96423.50;;;11.47;51.91
21821;BME280;11073;48.586;12.066;2023-04-28T00:44:08;96427.03;;;11.48;51.88
21821;BME280;11073;48.586;12.066;2023-04-28T00:46:38;96433.28;;;11.48;51.85
21821;BME280;11073;48.586;12.066;2023-04-28T00:49:08;96425.72;;;11.50;51.98
21821;BME280;11073;48.586;12.066;2023-04-28T00:51:38;96418.09;;;11.47;52.00
21821;BME280;11073;48.586;12.066;2023-04-28T00:54:08;96419.78;;;11.37;51.75
21821;BME280;11073;48.586;12.066;2023-04-28T00:56:58;96409.84;;;11.25;51.77
21821;BME280;11073;48.586;12.066;2023-04-28T00:59:30;96403.59;;;11.25;51.96
21821;BME280;11073;48.586;12.066;2023-04-28T01:02:04;96413.31;;;11.38;52.17
21821;BME280;11073;48.586;12.066;2023-04-28T01:04:34;96407.66;;;11.39;52.15
21821;BME280;11073;48.586;12.066;2023-04-28T01:07:04;96406.16;;;11.48;52.25
21821;BME280;11073;48.586;12.066;2023-04-28T01:09:33;96408.16;;;11.53;52.36
21821;BME280;11073;48.586;12.066;2023-04-28T01:12:04;96404.53;;;11.47;52.17
21821;BME280;11073;48.586;12.066;2023-04-28T01:14:41;96393.44;;;11.32;52.77
21821;BME280;11073;48.586;12.066;2023-04-28T01:17:13;96402.47;;;11.38;52.84
21821;BME280;11073;48.586;12.066;2023-04-28T01:19:42;96396.13;;;11.32;52.85
21821;BME280;11073;48.586;12.066;2023-04-28T01:22:11;96402.03;;;11.29;52.83
21821;BME280;11073;48.586;12.066;2023-04-28T01:24:44;96402.28;;;11.27;52.91
21821;BME280;11073;48.586;12.066;2023-04-28T01:27:14;96395.06;;;11.33;52.88
21821;BME280;11073;48.586;12.066;2023-04-28T01:29:43;96390.72;;;11.32;53.17
21821;BME280;11073;48.586;12.066;2023-04-28T01:32:12;96384.22;;;11.33;53.06
21821;BME280;11073;48.586;12.066;2023-04-28T01:34:41;96386.22;;;11.38;53.31
21821;BME280;11073;48.586;12.066;2023-04-28T01:37:10;96388.31;;;11.36;52.98
21821;BME280;11073;48.586;12.066;2023-04-28T01:39:39;96380.69;;;11.32;52.92
21821;BME280;11073;48.586;12.066;2023-04-28T01:42:09;96379.47;;;11.40;53.10
21821;BME280;11073;48.586;12.066;2023-04-28T01:44:38;96378.41;;;11.41;53.55
21821;BME280;11073;48.586;12.066;2023-04-28T01:47:10;96375.03;;;11.34;53.29
21821;BME280;11073;48.586;12.066;2023-04-28T01:49:39;96380.53;;;11.39;53.29
21821;BME280;11073;48.586;12.066;2023-04-28T01:52:08;96382.50;;;11.44;53.47
21821;BME280;11073;48.586;12.066;2023-04-28T01:54:37;96378.91;;;11.38;53.50
21821;BME280;11073;48.586;12.066;2023-04-28T01:57:06;96395.16;;;11.38;53.88
21821;BME280;11073;48.586;12.066;2023-04-28T01:59:37;96385.53;;;11.30;54.08
21821;BME280;11073;48.586;12.066;2023-04-28T02:02:06;96384.94;;;11.28;54.00
21821;BME280;11073;48.586;12.066;2023-04-28T02:04:36;96357.00;;;11.11;54.02
21821;BME280;11073;48.586;12.066;2023-04-28T02:07:06;96382.00;;;11.30;54.45
21821;BME280;11073;48.586;12.066;2023-04-28T02:09:35;96392.09;;;11.35;54.49
21821;BME280;11073;48.586;12.066;2023-04-28T02:12:04;96356.34;;;11.21;54.34
21821;BME280;11073;48.586;12.066;2023-04-28T02:14:33;96382.84;;;11.30;54.13
21821;BME280;11073;48.586;12.066;2023-04-28T02:17:03;96389.69;;;11.21;54.43
21821;BME280;11073;48.586;12.066;2023-04-28T02:19:32;96388.88;;;11.21;54.21
21821;BME280;11073;48.586;12.066;2023-04-28T02:22:01;96388.41;;;11.24;54.52
21821;BME280;11073;48.586;12.066;2023-04-28T02:24:29;96375.41;;;11.09;54.42
21821;BME280;11073;48.586;12.066;2023-04-28T02:26:58;96377.13;;;11.15;54.41
21821;BME280;11073;48.586;12.066;2023-04-28T02:29:27;96360.94;;;11.03;54.38
21821;BME280;11073;48.586;12.066;2023-04-28T02:31:57;96368.75;;;11.17;54.46
21821;BME280;11073;48.586;12.066;2023-04-28T02:34:27;96365.00;;;11.18;54.59
21821;BME280;11073;48.586;12.066;2023-04-28T02:36:57;96368.50;;;11.18;54.78
21821;BME280;11073;48.586;12.066;2023-04-28T02:39:26;96360.78;;;11.10;54.72
21821;BME280;11073;48.586;12.066;2023-04-28T02:41:56;96357.66;;;11.01;54.60
21821;BME280;11073;48.586;12.066;2023-04-28T02:44:25;96361.09;;;10.97;54.96
21821;BME280;11073;48.586;12.066;2023-04-28T02:46:54;96342.16;;;10.85;55.25
21821;BME280;11073;48.586;12.066;2023-04-28T02:49:25;96351.16;;;11.02;55.27
21821;BME280;11073;48.586;12.066;2023-04-28T02:51:55;96347.28;;;10.98;55.21
21821;BME280;11073;48.586;12.066;2023-04-28T02:54:24;96346.00;;;11.01;55.34
21821;BME280;11073;48.586;12.066;2023-04-28T02:56:57;96356.34;;;11.04;55.46
21821;BME280;11073;48.586;12.066;2023-04-28T02:59:26;96360.78;;;11.10;55.22
21821;BME280;11073;48.586;12.066;2023-04-28T03:01:56;96350.53;;;11.12;55.21
21821;BME280;11073;48.586;12.066;2023-04-28T03:04:24;96366.63;;;11.19;55.20
21821;BME280;11073;48.586;12.066;2023-04-28T03:06:53;96358.75;;;11.17;55.43
21821;BME280;11073;48.586;12.066;2023-04-28T03:09:24;96361.22;;;11.19;55.34
21821;BME280;11073;48.586;12.066;2023-04-28T03:11:52;96363.41;;;11.22;55.39
21821;BME280;11073;48.586;12.066;2023-04-28T03:14:22;96363.41;;;11.22;55.40
21821;BME280;11073;48.586;12.066;2023-04-28T03:16:50;96356.03;;;11.17;55.65
21821;BME280;11073;48.586;12.066;2023-04-28T03:19:19;96352.72;;;11.15;55.51
21821;BME280;11073;48.586;12.066;2023-04-28T03:21:48;96356.84;;;11.18;55.58
21821;BME280;11073;48.586;12.066;2023-04-28T03:24:16;96358.16;;;11.15;55.60
21821;BME280;11073;48.586;12.066;2023-04-28T03:26:47;96360.44;;;11.07;55.88
21821;BME280;11073;48.586;12.066;2023-04-28T03:29:15;96355.66;;;10.97;56.07
21821;BME280;11073;48.586;12.066;2023-04-28T03:31:44;96343.81;;;10.86;56.28
21821;BME280;11073;48.586;12.066;2023-04-28T03:34:13;96333.47;;;10.83;56.39
21821;BME280;11073;48.586;12.066;2023-04-28T03:36:43;96335.94;;;10.85;56.55
21821;BME280;11073;48.586;12.066;2023-04-28T03:39:20;96333.47;;;10.83;56.48
21821;BME280;11073;48.586;12.066;2023-04-28T03:41:51;96312.84;;;10.65;56.78
21821;BME280;11073;48.586;12.066;2023-04-28T03:44:35;96327.34;;;10.59;56.84
21821;BME280;11073;48.586;12.066;2023-04-28T03:47:06;96328.28;;;10.65;57.15
21821;BME280;11073;48.586;12.066;2023-04-28T03:49:36;96343.13;;;10.79;57.08
21821;BME280;11073;48.586;12.066;2023-04-28T03:52:05;96340.81;;;10.71;57.36
21821;BME280;11073;48.586;12.066;2023-04-28T03:54:34;96339.19;;;10.70;57.62
21821;BME280;11073;48.586;12.066;2023-04-28T03:57:04;96320.63;;;10.62;57.46
21821;BME280;11073;48.586;12.066;2023-04-28T03:59:34;96310.75;;;10.56;57.92
21821;BME280;11073;48.586;12.066;2023-04-28T04:02:03;96325.91;;;10.57;57.76
21821;BME280;11073;48.586;12.066;2023-04-28T04:04:31;96331.25;;;10.52;58.09
21821;BME280;11073;48.586;12.066;2023-04-28T04:07:00;96328.44;;;10.46;58.23
21821;BME280;11073;48.586;12.066;2023-04-28T04:09:30;96319.19;;;10.31;58.44
21821;BME280;11073;48.586;12.066;2023-04-28T04:11:59;96316.63;;;10.24;58.76
21821;BME280;11073;48.586;12.066;2023-04-28T04:14:30;96323.69;;;10.25;58.71
21821;BME280;11073;48.586;12.066;2023-04-28T04:17:00;96317.56;;;10.30;58.61
21821;BME280;11073;48.586;12.066;2023-04-28T04:19:28;96317.88;;;10.33;58.82
21821;BME280;11073;48.586;12.066;2023-04-28T04:21:56;96310.69;;;10.39;58.94
21821;BME280;11073;48.586;12.066;2023-04-28T04:24:25;96301.75;;;10.38;58.99
21821;BME280;11073;48.586;12.066;2023-04-28T04:26:54;96321.00;;;10.54;58.98
21821;BME280;11073;48.586;12.066;2023-04-28T04:29:31;96321.69;;;10.61;58.72
21821;BME280;11073;48.586;12.066;2023-04-28T04:32:05;96311.09;;;10.59;58.63
21821;BME280;11073;48.586;12.066;2023-04-28T04:34:34;96313.66;;;10.66;58.60
21821;BME280;11073;48.586;12.066;2023-04-28T04:37:03;96291.56;;;10.57;58.74
21821;BME280;11073;48.586;12.066;2023-04-28T04:39:32;96315.16;;;10.73;58.91
21821;BME280;11073;48.586;12.066;2023-04-28T04:42:01;96313.59;;;10.77;58.47
21821;BME280;11073;48.586;12.066;2023-04-28T04:45:01;96304.09;;;10.75;58.63
21821;BME280;11073;48.586;12.066;2023-04-28T04:47:30;96307.59;;;10.75;58.87
21821;BME280;11073;48.586;12.066;2023-04-28T04:49:59;96297.75;;;10.69;58.68
21821;BME280;11073;48.586;12.066;2023-04-28T04:52:28;96298.31;;;10.71;58.92
21821;BME280;11073;48.586;12.066;2023-04-28T04:54:58;96298.00;;;10.68;59.02
21821;BME280;11073;48.586;12.066;2023-04-28T04:57:28;96300.59;;;10.63;59.10
21821;BME280;11073;48.586;12.066;2023-04-28T05:00:08;96306.38;;;10.66;59.43
21821;BME280;11073;48.586;12.066;2023-04-28T05:02:38;96313.66;;;10.66;59.61
21821;BME280;11073;48.586;12.066;2023-04-28T05:05:08;96328.28;;;10.65;59.77
21821;BME280;11073;48.586;12.066;2023-04-28T05:08:11;96328.16;;;10.60;59.66
21821;BME280;11073;48.586;12.066;2023-04-28T05:10:40;96316.28;;;10.61;59.70
21821;BME280;11073;48.586;12.066;2023-04-28T05:13:09;96316.28;;;10.61;59.87
21821;BME280;11073;48.586;12.066;2023-04-28T05:15:40;96309.31;;;10.65;60.02
21821;BME280;11073;48.586;12.066;2023-04-28T05:18:41;96290.44;;;10.70;60.15
21821;BME280;11073;48.586;12.066;2023-04-28T05:21:10;96275.50;;;10.67;60.22
21821;BME280;11073;48.586;12.066;2023-04-28T05:23:39;96276.34;;;10.68;60.11
21821;BME280;11073;48.586;12.066;2023-04-28T05:26:08;96265.41;;;10.63;60.43
21821;BME280;11073;48.586;12.066;2023-04-28T05:28:38;96265.50;;;10.68;60.38
21821;BME280;11073;48.586;12.066;2023-04-28T05:31:09;96261.63;;;10.64;60.37
21821;BME280;11073;48.586;12.066;2023-04-28T05:33:38;96276.66;;;10.71;60.77
21821;BME280;11073;48.586;12.066;2023-04-28T05:36:07;96272.09;;;10.72;60.66
21821;BME280;11073;48.586;12.066;2023-04-28T05:38:35;96256.72;;;10.61;60.82
21821;BME280;11073;48.586;12.066;2023-04-28T05:41:04;96281.91;;;10.78;60.91
21821;BME280;11073;48.586;12.066;2023-04-28T05:43:33;96290.25;;;10.88;61.27
21821;BME280;11073;48.586;12.066;2023-04-28T05:46:02;96287.03;;;10.91;61.17
21821;BME280;11073;48.586;12.066;2023-04-28T05:48:42;96282.69;;;10.90;61.12
21821;BME280;11073;48.586;12.066;2023-04-28T05:51:10;96289.66;;;10.86;61.17
21821;BME280;11073;48.586;12.066;2023-04-28T05:53:39;96298.38;;;11.05;61.53
21821;BME280;11073;48.586;12.066;2023-04-28T05:56:08;96283.19;;;11.04;61.30
21821;BME280;11073;48.586;12.066;2023-04-28T05:58:36;96267.91;;;10.98;61.24
21821;BME280;11073;48.586;12.066;2023-04-28T06:01:06;96274.56;;;11.07;61.49
21821;BME280;11073;48.586;12.066;2023-04-28T06:03:34;96281.47;;;11.15;61.53
21821;BME280;11073;48.586;12.066;2023-04-28T06:06:06;96282.94;;;11.05;61.45
21821;BME280;11073;48.586;12.066;2023-04-28T06:08:37;96281.97;;;10.95;61.78
21821;BME280;11073;48.586;12.066;2023-04-28T06:11:06;96276.69;;;10.88;61.83
21821;BME280;11073;48.586;12.066;2023-04-28T06:13:35;96280.16;;;11.00;62.24
21821;BME280;11073;48.586;12.066;2023-04-28T06:16:04;96285.19;;;11.09;62.19
21821;BME280;11073;48.586;12.066;2023-04-28T06:18:34;96289.03;;;11.13;62.30
21821;BME280;11073;48.586;12.066;2023-04-28T06:21:04;96291.91;;;11.06;62.55
21821;BME280;11073;48.586;12.066;2023-04-28T06:23:33;96280.16;;;11.00;62.85
21821;BME280;11073;48.586;12.066;2023-04-28T06:26:02;96285.34;;;11.02;62.96
21821;BME280;11073;48.586;12.066;2023-04-28T06:28:32;96282.69;;;11.07;62.96
21821;BME280;11073;48.586;12.066;2023-04-28T06:31:01;96280.09;;;11.12;63.21
21821;BME280;11073;48.586;12.066;2023-04-28T06:33:30;96293.88;;;11.27;63.46
21821;BME280;11073;48.586;12.066;2023-04-28T06:35:59;96285.50;;;11.29;63.35
21821;BME280;11073;48.586;12.066;2023-04-28T06:38:30;96285.84;;;11.32;63.67
21821;BME280;11073;48.586;12.066;2023-04-28T06:41:00;96283.94;;;11.33;63.71
21821;BME280;11073;48.586;12.066;2023-04-28T06:43:29;96292.97;;;11.39;64.04
21821;BME280;11073;48.586;12.066;2023-04-28T06:46:23;96276.97;;;11.37;63.82
21821;BME280;11073;48.586;12.066;2023-04-28T06:48:52;96287.31;;;11.40;63.94
21821;BME280;11073;48.586;12.066;2023-04-28T06:51:21;96291.00;;;11.34;64.02
21821;BME280;11073;48.586;12.066;2023-04-28T06:53:52;96284.91;;;11.44;64.46
21821;BME280;11073;48.586;12.066;2023-04-28T06:56:21;96288.06;;;11.52;64.51
21821;BME280;11073;48.586;12.066;2023-04-28T06:58:51;96277.22;;;11.52;64.39
21821;BME280;11073;48.586;12.066;2023-04-28T07:01:19;96277.78;;;11.54;64.55
21821;BME280;11073;48.586;12.066;2023-04-28T07:03:48;96273.91;;;11.50;64.51
21821;BME280;11073;48.586;12.066;2023-04-28T07:06:17;96299.44;;;11.71;64.51
21821;BME280;11073;48.586;12.066;2023-04-28T07:08:46;96292.13;;;11.72;64.67
21821;BME280;11073;48.586;12.066;2023-04-28T07:11:16;96320.94;;;11.78;65.06
21821;BME280;11073;48.586;12.066;2023-04-28T07:13:45;96320.22;;;11.66;64.96
21821;BME280;11073;48.586;12.066;2023-04-28T07:16:16;96340.06;;;11.66;64.85
21821;BME280;11073;48.586;12.066;2023-04-28T07:18:45;96341.34;;;11.64;65.10
21821;BME280;11073;48.586;12.066;2023-04-28T07:21:14;96317.78;;;11.47;65.33
21821;BME280;11073;48.586;12.066;2023-04-28T07:23:43;96340.28;;;11.65;65.60
21821;BME280;11073;48.586;12.066;2023-04-28T07:26:12;96341.69;;;11.67;65.55
21821;BME280;11073;48.586;12.066;2023-04-28T07:28:44;96348.50;;;11.70;65.83
21821;BME280;11073;48.586;12.066;2023-04-28T07:31:13;96354.44;;;11.67;65.50
21821;BME280;11073;48.586;12.066;2023-04-28T07:33:42;96353.00;;;11.64;65.69
21821;BME280;11073;48.586;12.066;2023-04-28T07:36:11;96347.03;;;11.62;66.23
21821;BME280;11073;48.586;12.066;2023-04-28T07:38:40;96326.56;;;11.54;66.21
21821;BME280;11073;48.586;12.066;2023-04-28T07:41:09;96341.44;;;11.69;66.48
21821;BME280;11073;48.586;12.066;2023-04-28T07:43:38;96335.19;;;11.68;66.56
21821;BME280;11073;48.586;12.066;2023-04-28T07:46:09;96336.81;;;11.69;66.91
21821;BME280;11073;48.586;12.066;2023-04-28T07:48:37;96336.91;;;11.74;67.12
21821;BME280;11073;48.586;12.066;2023-04-28T07:51:06;96330.72;;;11.79;67.02
21821;BME280;11073;48.586;12.066;2023-04-28T07:53:34;96337.59;;;11.81;67.54
21821;BME280;11073;48.586;12.066;2023-04-28T07:56:03;96310.22;;;11.66;67.48
21821;BME280;11073;48.586;12.066;2023-04-28T07:58:32;96333.38;;;11.74;67.72
21821;BME280;11073;48.586;12.066;2023-04-28T08:01:01;96328.78;;;11.74;68.23
21821;BME280;11073;48.586;12.066;2023-04-28T08:03:31;96326.81;;;11.70;68.25
21821;BME280;11073;48.586;12.066;2023-04-28T08:06:00;96319.66;;;11.64;68.73
21821;BME280;11073;48.586;12.066;2023-04-28T08:08:29;96328.13;;;11.67;68.95
21821;BME280;11073;48.586;12.066;2023-04-28T08:10:57;96330.84;;;11.67;69.00
21821;BME280;11073;48.586;12.066;2023-04-28T08:13:26;96328.28;;;11.60;69.66
21821;BME280;11073;48.586;12.066;2023-04-28T08:15:55;96277.19;;;11.36;69.84
21821;BME280;11073;48.586;12.066;2023-04-28T08:18:24;96316.28;;;11.56;70.30
21821;BME280;11073;48.586;12.066;2023-04-28T08:20:54;96313.50;;;11.51;70.42
21821;BME280;11073;48.586;12.066;2023-04-28T08:23:22;96308.56;;;11.48;70.93
21821;BME280;11073;48.586;12.066;2023-04-28T08:25:54;96302.66;;;11.51;71.16
21821;BME280;11073;48.586;12.066;2023-04-28T08:28:22;96302.34;;;11.48;71.72
21821;BME280;11073;48.586;12.066;2023-04-28T08:30:51;96297.34;;;11.40;71.82
21821;BME280;11073;48.586;12.066;2023-04-28T08:33:22;96305.34;;;11.51;72.04
21821;BME280;11073;48.586;12.066;2023-04-28T08:35:51;96296.19;;;11.52;72.30
21821;BME280;11073;48.586;12.066;2023-04-28T08:38:20;96290.81;;;11.57;72.55
21821;BME280;11073;48.586;12.066;2023-04-28T08:40:51;96285.75;;;11.61;72.47
21821;BME280;11073;48.586;12.066;2023-04-28T08:43:20;96288.19;;;11.63;72.88
21821;BME280;11073;48.586;12.066;2023-04-28T08:45:49;96279.81;;;11.64;72.69
21821;BME280;11073;48.586;12.066;2023-04-28T08:48:19;96277.91;;;11.65;72.99
21821;BME280;11073;48.586;12.066;2023-04-28T08:50:50;96282.41;;;11.76;73.40
21821;BME280;11073;48.586;12.066;2023-04-28T08:53:23;96271.56;;;11.76;73.45
21821;BME280;11073;48.586;12.066;2023-04-28T08:55:54;96284.72;;;11.84;73.71
21821;BME280;11073;48.586;12.066;2023-04-28T08:58:24;96275.59;;;11.90;73.95
21821;BME280;11073;48.586;12.066;2023-04-28T09:00:53;96276.31;;;12.02;74.04
21821;BME280;11073;48.586;12.066;2023-04-28T09:03:22;96285.13;;;12.14;74.37
21821;BME280;11073;48.586;12.066;2023-04-28T09:05:52;96283.31;;;12.20;74.06
21821;BME280;11073;48.586;12.066;2023-04-28T09:08:21;96276.50;;;12.18;74.33
21821;BME280;11073;48.586;12.066;2023-04-28T09:11:05;96270.00;;;12.19;74.38
21821;BME280;11073;48.586;12.066;2023-04-28T09:13:34;96265.75;;;12.28;74.67
21821;BME280;11073;48.586;12.066;2023-04-28T09:16:04;96261.47;;;12.32;74.64
21821;BME280;11073;48.586;12.066;2023-04-28T09:18:33;96258.34;;;12.45;74.81
21821;BME280;11073;48.586;12.066;2023-04-28T09:21:02;96270.41;;;12.54;75.05
21821;BME280;11073;48.586;12.066;2023-04-28T09:23:33;96264.81;;;12.66;75.38
21821;BME280;11073;48.586;12.066;2023-04-28T09:26:03;96258.53;;;12.60;75.39
21821;BME280;11073;48.586;12.066;2023-04-28T09:28:31;96259.16;;;12.67;75.42
21821;BME280;11073;48.586;12.066;2023-04-28T09:31:01;96252.13;;;12.72;75.80
21821;BME280;11073;48.586;12.066;2023-04-28T09:33:30;96259.31;;;12.83;75.69
21821;BME280;11073;48.586;12.066;2023-04-28T09:35:59;96249.59;;;12.92;75.67
21821;BME280;11073;48.586;12.066;2023-04-28T09:38:28;96243.09;;;12.93;75.70
21821;BME280;11073;48.586;12.066;2023-04-28T09:41:00;96246.94;;;12.97;75.86
21821;BME280;11073;48.586;12.066;2023-04-28T09:43:30;96238.53;;;12.98;75.77
21821;BME280;11073;48.586;12.066;2023-04-28T09:46:00;96230.13;;;13.00;75.48
21821;BME280;11073;48.586;12.066;2023-04-28T09:48:31;96218.69;;;12.98;75.83
21821;BME280;11073;48.586;12.066;2023-04-28T09:51:01;96223.66;;;13.06;75.90
21821;BME280;11073;48.586;12.066;2023-04-28T09:53:31;96235.59;;;13.05;76.00
21821;BME280;11073;48.586;12.066;2023-04-28T09:56:02;96222.78;;;13.01;76.12
21821;BME280;11073;48.586;12.066;2023-04-28T09:58:33;96236.69;;;13.04;75.89
21821;BME280;11073;48.586;12.066;2023-04-28T10:01:04;96237.13;;;12.96;75.87
21821;BME280;11073;48.586;12.066;2023-04-28T10:03:34;96232.28;;;13.03;76.32
21821;BME280;11073;48.586;12.066;2023-04-28T10:06:04;96245.94;;;13.08;76.53
21821;BME280;11073;48.586;12.066;2023-04-28T10:08:34;96233.16;;;13.04;76.37
21821;BME280;11073;48.586;12.066;2023-04-28T10:11:04;96239.94;;;13.06;76.80
21821;BME280;11073;48.586;12.066;2023-04-28T10:13:34;96205.25;;;12.86;77.00
21821;BME280;11073;48.586;12.066;2023-04-28T10:16:05;96236.69;;;13.09;77.15
21821;BME280;11073;48.586;12.066;2023-04-28T10:18:35;96230.44;;;13.09;77.06
21821;BME280;11073;48.586;12.066;2023-04-28T10:21:05;96240.28;;;13.15;77.14
21821;BME280;11073;48.586;12.066;2023-04-28T10:23:53;96239.22;;;13.16;77.34
21821;BME280;11073;48.586;12.066;2023-04-28T10:26:57;96235.94;;;13.14;77.20
21821;BME280;11073;48.586;12.066;2023-04-28T10:29:31;96230.22;;;13.15;77.47
21821;BME280;11073;48.586;12.066;2023-04-28T10:32:20;96240.56;;;13.13;77.52
21821;BME280;11073;48.586;12.066;2023-04-28T10:34:50;96225.75;;;12.99;77.67
21821;BME280;11073;48.586;12.066;2023-04-28T10:40:32;96235.25;;;12.96;78.10
21821;BME280;11073;48.586;12.066;2023-04-28T10:43:02;96225.97;;;12.92;78.32
21821;BME280;11073;48.586;12.066;2023-04-28T10:49:01;96221.31;;;12.88;78.63
21821;BME280;11073;48.586;12.066;2023-04-28T10:51:31;96220.69;;;12.81;78.74
21821;BME280;11073;48.586;12.066;2023-04-28T10:54:16;96221.78;;;12.80;78.99
21821;BME280;11073;48.586;12.066;2023-04-28T11:00:27;96213.28;;;12.71;79.42
21821;BME280;11073;48.586;12.066;2023-04-28T11:02:57;96220.59;;;12.70;79.40
21821;BME280;11073;48.586;12.066;2023-04-28T11:05:25;96211.84;;;12.63;79.65
21821;BME280;11073;48.586;12.066;2023-04-28T11:08:34;96219.25;;;12.68;80.01
21821;BME280;11073;48.586;12.066;2023-04-28T11:11:19;96216.19;;;12.64;80.01
21821;BME280;11073;48.586;12.066;2023-04-28T11:13:49;96201.47;;;12.55;80.38
21821;BME280;11073;48.586;12.066;2023-04-28T11:16:21;96219.13;;;12.58;80.61
21821;BME280;11073;48.586;12.066;2023-04-28T11:18:53;96222.91;;;12.57;80.62
21821;BME280;11073;48.586;12.066;2023-04-28T11:21:23;96217.47;;;12.57;81.15
21821;BME280;11073;48.586;12.066;2023-04-28T11:23:54;96212.06;;;12.57;80.95
21821;BME280;11073;48.586;12.066;2023-04-28T11:26:26;96218.81;;;12.54;81.32
21821;BME280;11073;48.586;12.066;2023-04-28T11:28:56;96212.88;;;12.57;81.28
21821;BME280;11073;48.586;12.066;2023-04-28T11:31:27;96213.69;;;12.58;81.46
21821;BME280;11073;48.586;12.066;2023-04-28T11:33:58;96209.06;;;12.58;81.63
21821;BME280;11073;48.586;12.066;2023-04-28T11:36:30;96207.38;;;12.52;82.03
21821;BME280;11073;48.586;12.066;2023-04-28T11:39:02;96192.97;;;12.47;81.92
21821;BME280;11073;48.586;12.066;2023-04-28T11:41:34;96202.00;;;12.57;82.00
21821;BME280;11073;48.586;12.066;2023-04-28T11:44:11;96204.16;;;12.55;82.35
21821;BME280;11073;48.586;12.066;2023-04-28T11:46:48;96197.34;;;12.53;82.07
21821;BME280;11073;48.586;12.066;2023-04-28T11:49:22;96194.34;;;12.49;82.28
21821;BME280;11073;48.586;12.066;2023-04-28T11:51:52;96186.25;;;12.54;82.52
21821;BME280;11073;48.586;12.066;2023-04-28T11:54:22;96180.50;;;12.51;82.71
21821;BME280;11073;48.586;12.066;2023-04-28T11:56:53;96194.75;;;12.63;82.94
21821;BME280;11073;48.586;12.066;2023-04-28T11:59:24;96191.25;;;12.67;83.17
21821;BME280;11073;48.586;12.066;2023-04-28T12:01:56;96184.16;;;12.61;83.07
21821;BME280;11073;48.586;12.066;2023-04-28T12:04:27;96187.34;;;12.58;83.10
21821;BME280;11073;48.586;12.066;2023-04-28T12:07:01;96182.75;;;12.59;83.30
21821;BME280;11073;48.586;12.066;2023-04-28T12:09:30;96181.97;;;12.63;83.60
21821;BME280;11073;48.586;12.066;2023-04-28T12:12:00;96179.78;;;12.60;83.22
21821;BME280;11073;48.586;12.066;2023-04-28T12:14:30;96186.31;;;12.64;83.44
21821;BME280;11073;48.586;12.066;2023-04-28T12:17:03;96187.69;;;12.67;83.58
21821;BME280;11073;48.586;12.066;2023-04-28T12:19:42;96193.44;;;12.70;83.25
21821;BME280;11073;48.586;12.066;2023-04-28T12:22:11;96192.97;;;12.79;83.35
21821;BME280;11073;48.586;12.066;2023-04-28T12:24:43;96185.66;;;12.79;83.35
21821;BME280;11073;48.586;12.066;2023-04-28T12:27:14;96181.50;;;12.72;83.58
21821;BME280;11073;48.586;12.066;2023-04-28T12:29:43;96164.41;;;12.71;83.62
21821;BME280;11073;48.586;12.066;2023-04-28T12:32:14;96188.16;;;12.86;83.74
21821;BME280;11073;48.586;12.066;2023-04-28T12:34:45;96187.66;;;12.94;83.76
21821;BME280;11073;48.586;12.066;2023-04-28T12:37:14;96180.66;;;12.98;83.61
21821;BME280;11073;48.586;12.066;2023-04-28T12:39:43;96184.41;;;12.92;83.27
21821;BME280;11073;48.586;12.066;2023-04-28T12:42:12;96177.59;;;12.89;83.22
21821;BME280;11073;48.586;12.066;2023-04-28T12:44:41;96187.72;;;12.99;83.22
21821;BME280;11073;48.586;12.066;2023-04-28T12:47:09;96186.59;;;12.95;83.33
21821;BME280;11073;48.586;12.066;2023-04-28T12:49:39;96183.09;;;13.00;83.62
21821;BME280;11073;48.586;12.066;2023-04-28T12:52:09;96191.03;;;13.06;83.59
21821;BME280;11073;48.586;12.066;2023-04-28T12:54:37;96190.84;;;13.18;83.19
21821;BME280;11073;48.586;12.066;2023-04-28T12:57:14;96185.22;;;13.24;83.22
21821;BME280;11073;48.586;12.066;2023-04-28T12:59:44;96190.13;;;13.28;83.41
21821;BME280;11073;48.586;12.066;2023-04-28T13:02:13;96174.41;;;13.35;82.94
21821;BME280;11073;48.586;12.066;2023-04-28T13:04:44;96177.47;;;13.43;83.29
21821;BME280;11073;48.586;12.066;2023-04-28T13:07:13;96175.56;;;13.44;82.93
21821;BME280;11073;48.586;12.066;2023-04-28T13:09:42;96175.59;;;13.49;82.93
21821;BME280;11073;48.586;12.066;2023-04-28T13:12:11;96168.56;;;13.58;83.10
21821;BME280;11073;48.586;12.066;2023-04-28T13:14:41;96173.50;;;13.66;82.96
21821;BME280;11073;48.586;12.066;2023-04-28T13:17:10;96157.44;;;13.65;82.63
21821;BME280;11073;48.586;12.066;2023-04-28T13:19:40;96163.22;;;13.78;82.90